Time;durP1;ratioP1;P1;durP2;ratioP2;P2;SDS_P1;SDS_P2;PMS_P1;PMS_P2;Temp;Humidity;BMP_temperature;BMP_pressure;BME280_temperature;BME280_humidity;BME280_pressure;Samples;Min_cycle;Max_cycle;Signal;HPM_P1;HPM_P2
2022/11/01 00:00:22;;;;;;;39.33;12.63;;;12.30;82.10;;;;;;4224038;27;20055;-89
2022/11/01 00:02:43;;;;;;;35.70;13.05;;;12.30;82.20;;;;;;4225924;27;20062;-90
2022/11/01 00:05:04;;;;;;;30.98;12.45;;;12.40;82.30;;;;;;4221159;27;21160;-90
2022/11/01 00:07:25;;;;;;;40.75;12.82;;;12.40;82.40;;;;;;4223858;27;20034;-90
2022/11/01 00:09:46;;;;;;;29.27;13.07;;;12.40;82.40;;;;;;4222896;28;20036;-89
2022/11/01 00:12:07;;;;;;;34.00;12.82;;;12.40;82.40;;;;;;4221603;27;20024;-89
2022/11/01 00:14:28;;;;;;;38.25;13.90;;;12.40;82.30;;;;;;4220016;28;20053;-89
2022/11/01 00:16:49;;;;;;;31.02;12.18;;;12.40;82.50;;;;;;4224016;27;20047;-90
2022/11/01 00:19:10;;;;;;;30.77;12.95;;;12.40;82.40;;;;;;4221931;27;20038;-90
2022/11/01 00:21:30;;;;;;;44.47;16.42;;;12.50;82.40;;;;;;4224398;28;20052;-90
2022/11/01 00:23:50;;;;;;;37.08;14.95;;;12.50;82.40;;;;;;4219988;28;20046;-89
2022/11/01 00:26:14;;;;;;;40.38;16.40;;;12.50;82.40;;;;;;4228890;28;20091;-90
2022/11/01 00:28:33;;;;;;;;;;;12.50;82.40;;;;;;4222613;28;20120;-90
2022/11/01 00:30:54;;;;;;;49.28;19.48;;;12.50;82.80;;;;;;4225062;28;20006;-91
2022/11/01 00:33:14;;;;;;;51.03;19.02;;;12.50;82.40;;;;;;4225311;28;20035;-91
2022/11/01 00:35:35;;;;;;;54.72;20.05;;;12.60;82.50;;;;;;4241639;28;20043;-91
2022/11/01 00:37:54;;;;;;;50.45;18.95;;;12.50;82.80;;;;;;4225022;28;20050;-91
2022/11/01 00:40:14;;;;;;;55.05;20.65;;;12.50;82.70;;;;;;4228607;28;20039;-90
2022/11/01 00:42:33;;;;;;;49.13;19.45;;;12.50;82.80;;;;;;4226610;28;20161;-90
2022/11/01 00:44:52;;;;;;;50.58;19.23;;;12.50;82.80;;;;;;4225042;28;20047;-90
2022/11/01 00:47:12;;;;;;;49.25;18.55;;;12.50;82.80;;;;;;4231921;28;20395;-89
2022/11/01 00:49:31;;;;;;;53.95;19.23;;;12.50;82.80;;;;;;4223616;28;20042;-92
2022/11/01 00:51:51;;;;;;;51.95;19.35;;;12.50;83.00;;;;;;4232471;28;20043;-90
2022/11/01 00:54:10;;;;;;;55.60;19.38;;;12.60;83.10;;;;;;4234453;28;20111;-89
2022/11/01 00:56:29;;;;;;;48.67;18.10;;;12.50;83.00;;;;;;4223009;28;20073;-90
2022/11/01 00:58:48;;;;;;;48.90;17.40;;;12.60;83.10;;;;;;4224581;28;20124;-90
2022/11/01 01:01:07;;;;;;;44.85;17.92;;;12.60;83.20;;;;;;4227939;28;20089;-90
2022/11/01 01:03:27;;;;;;;47.90;18.17;;;12.60;83.20;;;;;;4223099;28;20066;-90
2022/11/01 01:05:48;;;;;;;48.30;18.95;;;12.60;83.20;;;;;;4231064;28;20046;-89
2022/11/01 01:08:08;;;;;;;45.55;18.25;;;12.60;83.30;;;;;;4232289;28;20108;-90
2022/11/01 01:10:27;;;;;;;47.30;18.55;;;12.60;83.30;;;;;;4235812;28;20038;-89
2022/11/01 01:12:46;;;;;;;47.33;19.02;;;12.60;83.30;;;;;;4222945;28;20112;-90
2022/11/01 01:15:06;;;;;;;51.88;18.90;;;12.70;83.30;;;;;;4231307;28;20619;-90
2022/11/01 01:17:26;;;;;;;49.00;19.30;;;12.70;83.30;;;;;;4226616;28;20691;-89
2022/11/01 01:19:45;;;;;;;48.20;19.55;;;12.70;83.40;;;;;;4222521;28;20043;-89
2022/11/01 01:22:04;;;;;;;55.50;19.80;;;12.70;83.50;;;;;;4225275;28;20530;-89
2022/11/01 01:24:23;;;;;;;51.75;20.95;;;12.70;83.50;;;;;;4227559;27;20042;-91
2022/11/01 01:26:42;;;;;;;51.65;19.55;;;12.70;83.50;;;;;;4222156;28;20042;-91
2022/11/01 01:29:01;;;;;;;47.65;18.25;;;12.70;83.50;;;;;;4219725;28;20036;-91
2022/11/01 01:31:21;;;;;;;56.25;19.67;;;12.80;83.40;;;;;;4226731;27;20055;-90
2022/11/01 01:33:41;;;;;;;54.65;20.45;;;12.70;83.30;;;;;;4226022;27;20534;-90
2022/11/01 01:36:02;;;;;;;52.45;20.30;;;12.70;83.40;;;;;;4221233;27;20065;-91
2022/11/01 01:38:21;;;;;;;50.00;19.25;;;12.70;83.50;;;;;;4227620;27;20049;-90
2022/11/01 01:40:40;;;;;;;50.08;19.70;;;12.80;83.40;;;;;;4225387;27;20075;-90
2022/11/01 01:42:59;;;;;;;49.70;20.45;;;12.80;84.20;;;;;;4224728;27;20093;-90
2022/11/01 01:45:36;;;;;;;53.20;21.35;;;12.80;84.20;;;;;;4225329;27;20035;-90
2022/11/01 01:48:06;;;;;;;52.30;19.05;;;12.80;83.60;;;;;;4223818;27;20270;-90
2022/11/01 01:50:34;;;;;;;56.58;20.35;;;12.80;83.40;;;;;;4226123;27;20035;-90
2022/11/01 01:53:38;;;;;;;55.60;19.77;;;12.80;83.40;;;;;;4227681;27;22143;-91
2022/11/01 01:56:05;;;;;;;50.10;19.25;;;12.80;83.50;;;;;;4225780;27;20038;-90
2022/11/01 01:58:29;;;;;;;48.55;19.27;;;12.80;83.30;;;;;;4217251;27;20037;-91
2022/11/01 02:00:49;;;;;;;48.97;19.50;;;12.90;83.40;;;;;;4226034;27;20081;-89
2022/11/01 02:03:08;;;;;;;49.63;20.85;;;12.90;83.40;;;;;;4226377;27;20050;-89
2022/11/01 02:05:49;;;;;;;47.75;19.83;;;12.90;84.10;;;;;;4236110;27;20098;-91
2022/11/01 02:08:10;;;;;;;48.22;19.30;;;12.90;83.40;;;;;;4227317;27;20399;-90
2022/11/01 02:10:30;;;;;;;54.13;21.73;;;13.00;83.40;;;;;;4230796;27;20140;-91
2022/11/01 02:12:50;;;;;;;52.10;19.95;;;12.90;83.40;;;;;;4247192;27;20087;-90
2022/11/01 02:15:12;;;;;;;48.95;20.50;;;12.90;83.40;;;;;;4228801;27;20042;-90
2022/11/01 02:17:49;;;;;;;54.25;20.35;;;12.90;83.40;;;;;;4232715;27;20145;-90
2022/11/01 02:20:34;;;;;;;53.25;20.05;;;12.90;83.30;;;;;;4227978;27;20035;-90
2022/11/01 02:23:40;;;;;;;49.30;19.13;;;12.90;83.40;;;;;;4229490;27;20077;-92
2022/11/01 02:26:14;;;;;;;59.03;21.05;;;13.00;83.50;;;;;;4180054;28;20107;-92
2022/11/01 02:29:03;;;;;;;53.05;20.63;;;13.00;83.60;;;;;;4229232;27;20049;-90
2022/11/01 02:31:49;;;;;;;56.55;20.55;;;13.00;83.60;;;;;;4173053;28;20087;-90
2022/11/01 02:34:53;;;;;;;51.40;19.25;;;13.00;83.30;;;;;;4179325;28;20075;-91
2022/11/01 02:37:41;;;;;;;49.33;19.48;;;13.00;83.40;;;;;;4175755;28;20040;-91
2022/11/01 02:40:07;;;;;;;49.10;19.65;;;13.00;83.30;;;;;;4161586;28;20124;-91
2022/11/01 02:42:35;;;;;;;56.17;20.55;;;13.00;83.10;;;;;;4165393;28;20120;-92
2022/11/01 02:45:02;;;;;;;49.55;19.95;;;13.00;83.20;;;;;;4161342;28;20048;-91
2022/11/01 02:47:23;;;;;;;44.80;18.63;;;13.00;83.10;;;;;;4156897;28;20117;-90
2022/11/01 02:49:49;;;;;;;55.60;20.52;;;13.00;83.10;;;;;;4178355;28;20865;-91
2022/11/01 02:52:16;;;;;;;48.42;20.15;;;13.10;83.30;;;;;;4179821;28;20079;-91
2022/11/01 02:54:43;;;;;;;46.50;19.17;;;13.10;83.20;;;;;;4174039;28;20044;-91
2022/11/01 02:57:22;;;;;;;50.90;20.40;;;13.10;83.20;;;;;;4175488;28;20120;-90
2022/11/01 02:59:44;;;;;;;40.72;19.27;;;13.00;83.00;;;;;;4169258;28;20044;-92
2022/11/01 03:02:12;;;;;;;50.20;19.42;;;13.00;83.10;;;;;;4161514;28;20036;-91
2022/11/01 03:04:34;;;;;;;44.03;18.35;;;13.20;83.10;;;;;;4181159;28;20099;-91
2022/11/01 03:07:04;;;;;;;45.20;18.77;;;13.10;83.00;;;;;;4184803;28;20036;-90
2022/11/01 03:09:24;;;;;;;45.83;18.58;;;13.10;82.90;;;;;;4225719;27;20089;-89
2022/11/01 03:12:04;;;;;;;42.35;17.83;;;13.10;82.80;;;;;;4228479;28;20550;-90
2022/11/01 03:14:59;;;;;;;38.72;18.55;;;13.10;82.90;;;;;;4224940;27;20057;-90
2022/11/01 03:17:51;;;;;;;42.73;17.60;;;13.10;82.80;;;;;;4229445;27;20035;-90
2022/11/01 03:20:46;;;;;;;40.05;18.02;;;13.10;82.70;;;;;;4226275;27;20054;-90
2022/11/01 03:23:06;;;;;;;;;;;13.20;82.80;;;;;;4230600;27;20035;-90
2022/11/01 03:25:38;;;;;;;43.05;18.42;;;13.10;83.00;;;;;;4226439;27;19981;-90
2022/11/01 03:28:01;;;;;;;39.80;18.70;;;13.10;82.40;;;;;;4225971;27;20043;-90
2022/11/01 03:30:21;;;;;;;39.17;18.58;;;13.20;82.50;;;;;;4223118;27;20038;-89
2022/11/01 03:32:45;;;;;;;44.08;17.58;;;13.30;82.50;;;;;;4229409;27;20107;-89
2022/11/01 03:35:11;;;;;;;40.25;18.80;;;13.20;82.40;;;;;;4237585;28;20037;-93
2022/11/01 03:37:39;;;;;;;45.00;18.45;;;13.20;82.40;;;;;;4231644;28;20058;-92
2022/11/01 03:40:03;;;;;;;35.75;17.30;;;13.20;82.40;;;;;;4221774;27;20088;-90
2022/11/01 03:42:23;;;;;;;37.63;18.20;;;13.20;82.40;;;;;;4226569;27;20047;-92
2022/11/01 03:44:57;;;;;;;38.83;17.88;;;13.30;82.40;;;;;;4223674;27;20558;-89
2022/11/01 03:47:17;;;;;;;38.35;18.08;;;13.30;82.30;;;;;;4220537;28;20086;-91
2022/11/01 03:49:36;;;;;;;38.72;18.40;;;13.20;82.10;;;;;;4227615;28;20439;-91
2022/11/01 03:51:56;;;;;;;37.70;18.63;;;13.20;82.10;;;;;;4250187;27;20104;-89
2022/11/01 03:54:15;;;;;;;41.55;18.63;;;13.20;82.00;;;;;;4225069;28;20050;-91
2022/11/01 03:56:34;;;;;;;40.67;19.23;;;13.20;82.00;;;;;;4227846;27;20123;-90
2022/11/01 03:58:53;;;;;;;44.80;19.17;;;13.30;82.00;;;;;;4224931;27;20086;-90
2022/11/01 04:01:15;;;;;;;37.53;19.50;;;13.20;81.90;;;;;;4227830;27;20119;-91
2022/11/01 04:03:35;;;;;;;45.90;20.52;;;13.30;81.90;;;;;;4227968;27;20525;-89
2022/11/01 04:05:54;;;;;;;38.97;18.98;;;13.20;81.70;;;;;;4224994;27;20058;-91
2022/11/01 04:08:14;;;;;;;44.20;19.67;;;13.20;81.70;;;;;;4228255;27;20050;-89
2022/11/01 04:10:33;;;;;;;42.75;18.13;;;13.30;81.70;;;;;;4222273;28;20067;-91
2022/11/01 04:12:52;;;;;;;48.40;20.17;;;13.20;81.60;;;;;;4225545;28;20035;-91
2022/11/01 04:20:43;;;;;;;39.00;19.42;;;13.20;81.40;;;;;;4227897;27;20522;-91
2022/11/01 04:23:06;;;;;;;41.72;20.50;;;13.20;81.40;;;;;;4225903;28;20042;-90
2022/11/01 04:25:27;;;;;;;47.15;22.17;;;13.20;81.40;;;;;;4233123;28;20117;-90
2022/11/01 04:27:47;;;;;;;45.65;21.75;;;13.20;81.20;;;;;;4226941;28;20043;-91
2022/11/01 04:30:06;;;;;;;50.67;21.80;;;13.20;81.20;;;;;;4225789;28;20569;-90
2022/11/01 04:32:25;;;;;;;44.63;20.50;;;13.20;81.10;;;;;;4227721;28;20042;-90
2022/11/01 04:34:45;;;;;;;49.97;20.00;;;13.20;81.20;;;;;;4228372;28;20041;-91
2022/11/01 04:37:04;;;;;;;47.70;21.10;;;13.20;81.20;;;;;;4227033;28;20061;-90
2022/11/01 04:39:23;;;;;;;55.13;21.00;;;13.20;81.30;;;;;;4227439;28;20162;-90
2022/11/01 04:41:42;;;;;;;46.75;20.75;;;13.30;81.40;;;;;;4229695;28;20081;-89
2022/11/01 04:44:01;;;;;;;48.60;22.05;;;13.20;81.40;;;;;;4230352;28;20422;-90
2022/11/01 04:46:21;;;;;;;43.38;20.85;;;13.20;81.20;;;;;;4234033;28;20033;-89
2022/11/01 04:48:40;;;;;;;47.40;20.85;;;13.20;81.20;;;;;;4227225;28;20466;-89
2022/11/01 04:51:01;;;;;;;46.13;21.40;;;13.20;81.10;;;;;;4226879;28;20053;-90
2022/11/01 04:53:20;;;;;;;43.95;20.45;;;13.30;81.20;;;;;;4226997;28;20073;-90
2022/11/01 04:55:39;;;;;;;46.30;22.65;;;13.20;81.10;;;;;;4229110;27;20543;-89
2022/11/01 04:57:59;;;;;;;50.03;22.92;;;13.20;81.10;;;;;;4229396;27;20438;-87
2022/11/01 05:00:18;;;;;;;53.25;22.13;;;13.20;81.00;;;;;;4228250;27;20042;-89
2022/11/01 05:02:39;;;;;;;43.47;19.95;;;13.20;81.00;;;;;;4227996;27;20115;-89
2022/11/01 05:04:58;;;;;;;49.92;22.08;;;13.20;81.10;;;;;;4231371;27;20042;-90
2022/11/01 05:07:17;;;;;;;46.83;22.15;;;13.30;81.20;;;;;;4230024;27;20554;-90
2022/11/01 05:09:37;;;;;;;47.05;22.52;;;13.20;81.10;;;;;;4225309;27;20039;-88
2022/11/01 05:11:56;;;;;;;47.17;20.92;;;13.20;81.00;;;;;;4222554;27;20069;-87
2022/11/01 05:14:16;;;;;;;44.75;22.13;;;13.20;81.00;;;;;;4227524;27;20509;-87
2022/11/01 05:16:34;;;;;;;47.47;20.60;;;13.30;81.00;;;;;;4224406;27;20054;-87
2022/11/01 05:18:54;;;;;;;47.05;20.88;;;13.20;80.90;;;;;;4232769;27;20109;-87
2022/11/01 05:21:14;;;;;;;51.42;21.33;;;13.40;81.10;;;;;;4231267;27;20103;-86
2022/11/01 05:23:33;;;;;;;49.35;21.55;;;13.30;81.10;;;;;;4244517;27;20044;-87
2022/11/01 05:25:52;;;;;;;46.35;21.27;;;13.30;81.00;;;;;;4244548;27;20418;-86
2022/11/01 05:28:13;;;;;;;44.97;21.52;;;13.30;81.00;;;;;;4243356;27;20050;-86
2022/11/01 05:30:34;;;;;;;47.80;21.33;;;13.30;81.00;;;;;;4232837;27;20046;-87
2022/11/01 05:33:00;;;;;;;39.47;19.42;;;13.30;80.90;;;;;;4229178;28;20035;-87
2022/11/01 05:35:19;;;;;;;49.00;21.63;;;13.30;80.90;;;;;;4223610;27;20047;-88
2022/11/01 05:37:39;;;;;;;47.38;21.65;;;13.30;80.90;;;;;;4222148;27;20046;-87
2022/11/01 05:39:59;;;;;;;43.53;20.95;;;13.30;80.80;;;;;;4222185;28;20108;-87
2022/11/01 05:42:18;;;;;;;46.20;20.67;;;13.30;80.80;;;;;;4231028;27;20070;-87
2022/11/01 05:44:19;;;;;;;43.40;21.27;;;13.30;80.80;;;;;;4234986;27;20032;-87
2022/11/01 05:46:19;;;;;;;43.72;20.85;;;13.30;80.80;;;;;;4210646;28;20053;-87
2022/11/01 05:48:20;;;;;;;45.33;20.83;;;13.30;80.70;;;;;;4208965;28;21003;-87
2022/11/01 05:50:21;;;;;;;42.20;20.00;;;13.40;80.80;;;;;;4229723;27;20019;-88
2022/11/01 05:52:21;;;;;;;43.60;20.70;;;13.30;80.60;;;;;;4218605;28;20488;-88
2022/11/01 05:54:22;;;;;;;48.10;22.13;;;13.40;80.70;;;;;;4228103;27;20028;-87
2022/11/01 05:56:23;;;;;;;47.15;22.48;;;13.30;80.60;;;;;;4215757;27;20039;-87
2022/11/01 05:58:23;;;;;;;40.78;20.60;;;13.30;80.50;;;;;;4226086;27;20070;-87
2022/11/01 06:00:24;;;;;;;45.83;21.92;;;13.40;80.60;;;;;;4222319;27;20023;-87
2022/11/01 06:02:25;;;;;;;39.53;19.63;;;13.30;80.50;;;;;;4219927;27;20119;-88
2022/11/01 06:04:26;;;;;;;47.92;19.35;;;13.30;80.50;;;;;;4226169;27;20032;-87
2022/11/01 06:06:30;;;;;;;34.58;17.88;;;13.40;80.60;;;;;;4203430;28;20032;-89
2022/11/01 06:08:31;;;;;;;49.38;19.95;;;13.40;80.60;;;;;;4228911;28;20024;-87
2022/11/01 06:10:32;;;;;;;43.55;21.02;;;13.30;80.70;;;;;;4210237;28;20462;-87
2022/11/01 06:12:33;;;;;;;45.90;21.00;;;13.40;80.80;;;;;;4208068;28;20031;-87
2022/11/01 06:14:33;;;;;;;59.53;21.17;;;13.40;80.70;;;;;;4207839;28;20496;-87
2022/11/01 06:16:34;;;;;;;43.20;20.73;;;13.30;80.60;;;;;;4227736;27;20027;-88
2022/11/01 06:18:35;;;;;;;44.97;20.35;;;13.30;80.50;;;;;;4231663;27;20505;-86
2022/11/01 06:20:35;;;;;;;41.50;20.95;;;13.40;80.60;;;;;;4227973;27;20030;-87
2022/11/01 06:22:37;;;;;;;46.38;19.70;;;13.30;80.60;;;;;;4228011;27;20058;-87
2022/11/01 06:24:37;;;;;;;43.05;19.80;;;13.40;80.60;;;;;;4230753;27;20048;-87
2022/11/01 06:26:38;;;;;;;41.97;20.92;;;13.30;80.50;;;;;;4212518;28;20102;-87
2022/11/01 06:28:39;;;;;;;39.65;20.20;;;13.40;80.60;;;;;;4223871;27;20079;-87
2022/11/01 06:30:39;;;;;;;40.67;18.73;;;13.30;80.60;;;;;;4225044;27;20024;-87
2022/11/01 06:32:40;;;;;;;50.30;21.48;;;13.40;81.40;;;;;;4227967;27;20026;-87
2022/11/01 06:34:41;;;;;;;43.17;19.98;;;13.30;81.20;;;;;;4234169;27;20024;-86
2022/11/01 06:36:42;;;;;;;53.25;20.70;;;13.30;80.50;;;;;;4227277;27;20018;-87
2022/11/01 06:38:42;;;;;;;40.35;19.80;;;13.30;80.50;;;;;;4212918;28;20494;-86
2022/11/01 06:40:45;;;;;;;44.53;19.35;;;13.30;80.40;;;;;;4231318;27;20019;-87
2022/11/01 06:42:46;;;;;;;49.22;19.65;;;13.40;80.50;;;;;;4226304;27;20175;-87
2022/11/01 06:44:46;;;;;;;46.55;20.90;;;13.40;80.50;;;;;;4212871;28;20028;-87
2022/11/01 06:46:47;;;;;;;40.72;19.92;;;13.30;80.40;;;;;;4224257;27;20230;-87
2022/11/01 06:48:48;;;;;;;47.38;20.35;;;13.40;80.50;;;;;;4225574;27;20035;-87
2022/11/01 06:50:48;;;;;;;38.83;19.33;;;13.40;80.60;;;;;;4224975;27;20020;-87
2022/11/01 06:52:49;;;;;;;38.30;19.00;;;13.30;80.50;;;;;;4221015;27;20023;-87
2022/11/01 06:54:50;;;;;;;40.22;19.88;;;13.30;80.50;;;;;;4230223;27;20097;-87
2022/11/01 06:56:50;;;;;;;41.58;19.33;;;13.40;80.70;;;;;;4213151;28;20020;-87
2022/11/01 06:58:51;;;;;;;41.20;19.83;;;13.30;80.60;;;;;;4223637;27;20028;-87
2022/11/01 07:00:52;;;;;;;42.40;18.98;;;13.30;80.60;;;;;;4230830;27;20104;-87
2022/11/01 07:03:00;;;;;;;37.60;18.48;;;13.50;80.80;;;;;;4230902;28;20016;-86
2022/11/01 07:05:01;;;;;;;43.88;19.95;;;13.30;80.60;;;;;;4232436;27;20057;-87
2022/11/01 07:07:02;;;;;;;48.80;20.88;;;13.40;80.60;;;;;;4230265;27;20721;-87
2022/11/01 07:09:02;;;;;;;45.83;19.73;;;13.40;80.70;;;;;;4227298;27;20470;-87
2022/11/01 07:11:03;;;;;;;52.15;18.92;;;13.30;80.70;;;;;;4214467;28;20027;-87
2022/11/01 07:13:06;;;;;;;42.78;18.55;;;13.30;80.60;;;;;;4227130;27;20044;-86
2022/11/01 07:15:07;;;;;;;39.42;19.48;;;13.40;80.70;;;;;;4229442;27;20070;-87
2022/11/01 07:17:07;;;;;;;42.50;19.42;;;13.40;80.70;;;;;;4223844;27;20503;-87
2022/11/01 07:19:08;;;;;;;39.58;18.90;;;13.40;80.70;;;;;;4225651;27;20047;-87
2022/11/01 07:21:08;;;;;;;41.42;18.05;;;13.50;80.80;;;;;;4214524;28;20028;-87
2022/11/01 07:23:14;;;;;;;42.58;18.30;;;13.40;80.70;;;;;;4229394;27;20048;-87
2022/11/01 07:25:15;;;;;;;43.92;18.83;;;13.50;80.80;;;;;;4229182;27;20023;-87
2022/11/01 07:27:17;;;;;;;37.17;19.23;;;13.40;80.70;;;;;;4229440;27;20019;-87
2022/11/01 07:29:19;;;;;;;47.90;19.27;;;13.40;80.70;;;;;;4224307;27;20055;-87
2022/11/01 07:31:20;;;;;;;37.67;18.38;;;13.40;80.70;;;;;;4228073;28;20372;-87
2022/11/01 07:33:20;;;;;;;42.60;18.98;;;13.40;80.70;;;;;;4227780;27;20027;-87
2022/11/01 07:35:21;;;;;;;41.97;18.77;;;13.40;80.70;;;;;;4210604;28;20115;-87
2022/11/01 07:37:22;;;;;;;36.95;18.63;;;13.50;80.70;;;;;;4228365;27;20039;-86
2022/11/01 07:39:23;;;;;;;42.40;18.75;;;13.50;80.70;;;;;;4231444;27;20044;-87
2022/11/01 07:41:24;;;;;;;42.22;18.40;;;13.40;80.60;;;;;;4228508;27;20042;-87
2022/11/01 07:43:24;;;;;;;43.78;18.88;;;13.50;80.70;;;;;;4210624;28;20029;-87
2022/11/01 07:45:27;;;;;;;41.10;19.17;;;13.60;80.70;;;;;;4231664;27;20031;-86
2022/11/01 07:47:28;;;;;;;;;;;13.50;80.60;;;;;;4230875;27;20838;-87
2022/11/01 07:49:29;;;;;;;43.92;18.20;;;13.60;80.70;;;;;;4229551;27;19903;-87
2022/11/01 07:51:29;;;;;;;41.08;18.58;;;13.60;80.50;;;;;;4208912;28;20020;-87
2022/11/01 07:53:30;;;;;;;37.90;17.80;;;13.50;80.50;;;;;;4233767;27;20453;-86
2022/11/01 07:55:31;;;;;;;42.88;18.35;;;13.50;80.50;;;;;;4233611;27;20039;-87
2022/11/01 07:57:37;;;;;;;39.25;18.35;;;13.50;80.50;;;;;;4231321;27;20029;-87
2022/11/01 07:59:38;;;;;;;36.10;17.85;;;13.50;80.60;;;;;;4223741;27;20473;-86
2022/11/01 08:01:38;;;;;;;37.65;18.25;;;13.50;80.60;;;;;;4229921;27;20024;-87
2022/11/01 08:03:39;;;;;;;33.85;17.00;;;13.50;80.70;;;;;;4225280;27;20036;-87
2022/11/01 08:05:41;;;;;;;42.30;18.48;;;13.60;81.50;;;;;;4226144;28;20024;-87
2022/11/01 08:07:42;;;;;;;34.97;17.05;;;13.60;80.80;;;;;;4230033;27;20509;-86
2022/11/01 08:09:43;;;;;;;36.28;17.70;;;13.60;80.80;;;;;;4210083;28;20028;-87
2022/11/01 08:11:44;;;;;;;34.22;17.67;;;13.60;80.90;;;;;;4229166;27;20024;-87
2022/11/01 08:13:44;;;;;;;40.42;17.45;;;13.60;80.90;;;;;;4226677;28;20033;-87
2022/11/01 08:15:47;;;;;;;42.80;18.38;;;13.60;80.90;;;;;;4205564;28;20025;-87
2022/11/01 08:17:47;;;;;;;37.92;17.85;;;13.60;80.90;;;;;;4204096;28;20496;-87
2022/11/01 08:19:48;;;;;;;33.45;17.17;;;13.70;81.00;;;;;;4234523;27;20031;-87
2022/11/01 08:21:52;;;;;;;37.85;17.58;;;13.70;81.00;;;;;;4237365;27;20023;-87
2022/11/01 08:23:52;;;;;;;35.33;16.98;;;13.70;81.00;;;;;;4229001;27;20175;-87
2022/11/01 08:25:53;;;;;;;33.47;16.75;;;13.70;81.00;;;;;;4211357;28;20531;-87
2022/11/01 08:27:54;;;;;;;33.70;16.20;;;13.70;81.00;;;;;;4226066;27;20023;-87
2022/11/01 08:29:54;;;;;;;34.83;16.70;;;13.70;81.10;;;;;;4226954;28;20103;-87
2022/11/01 08:31:55;;;;;;;36.95;16.13;;;13.90;81.10;;;;;;4224305;28;20019;-87
2022/11/01 08:33:56;;;;;;;30.92;15.75;;;13.80;81.10;;;;;;4221736;28;20032;-87
2022/11/01 08:35:56;;;;;;;31.88;16.77;;;13.90;81.10;;;;;;4236107;28;20020;-87
2022/11/01 08:38:00;;;;;;;36.75;16.20;;;13.90;81.00;;;;;;4236353;28;20035;-87
2022/11/01 08:40:00;;;;;;;33.70;16.70;;;13.80;81.00;;;;;;4233510;28;20453;-87
2022/11/01 08:42:02;;;;;;;34.03;16.80;;;13.90;81.00;;;;;;4228881;28;20031;-87
2022/11/01 08:44:03;;;;;;;33.53;16.85;;;14.00;81.20;;;;;;4210269;28;20090;-87
2022/11/01 08:46:04;;;;;;;38.60;16.92;;;13.90;81.10;;;;;;4219271;28;20277;-88
2022/11/01 08:48:05;;;;;;;34.28;15.60;;;14.00;81.20;;;;;;4228018;28;20726;-87
2022/11/01 08:50:07;;;;;;;43.90;17.55;;;14.00;81.20;;;;;;4225110;28;20506;-87
2022/11/01 08:52:09;;;;;;;37.25;17.23;;;14.00;81.10;;;;;;4226770;28;20479;-87
2022/11/01 08:54:11;;;;;;;49.45;16.42;;;14.10;81.10;;;;;;4225013;28;20012;-87
2022/11/01 08:56:24;;;;;;;36.72;16.23;;;14.10;81.00;;;;;;4208112;28;20119;-86
2022/11/01 08:58:24;;;;;;;32.60;16.23;;;14.10;81.00;;;;;;4211431;28;20028;-87
2022/11/01 09:00:25;;;;;;;34.20;14.90;;;14.30;81.00;;;;;;4228129;28;20083;-87
2022/11/01 09:02:26;;;;;;;33.35;15.40;;;14.20;80.80;;;;;;4230353;28;20370;-87
2022/11/01 09:04:27;;;;;;;37.83;15.05;;;14.30;80.80;;;;;;4226848;28;20513;-87
2022/11/01 09:06:28;;;;;;;32.65;15.23;;;14.30;80.70;;;;;;4226706;28;20118;-87
2022/11/01 09:08:29;;;;;;;28.73;14.93;;;14.30;80.60;;;;;;4209934;28;20052;-87
2022/11/01 09:10:30;;;;;;;37.20;14.27;;;14.30;80.40;;;;;;4224798;28;20566;-87
2022/11/01 09:12:30;;;;;;;30.70;13.65;;;14.30;80.30;;;;;;4228042;28;20047;-87
2022/11/01 09:14:31;;;;;;;33.90;15.45;;;14.30;80.20;;;;;;4226199;28;20050;-87
2022/11/01 09:16:33;;;;;;;33.38;14.48;;;14.40;80.10;;;;;;4226916;28;20027;-87
2022/11/01 09:18:34;;;;;;;32.08;13.45;;;14.50;80.10;;;;;;4211039;28;20031;-87
2022/11/01 09:20:35;;;;;;;30.20;13.50;;;14.40;80.10;;;;;;4208809;28;20449;-87
2022/11/01 09:22:39;;;;;;;37.25;13.75;;;14.40;80.30;;;;;;4215286;28;20027;-86
2022/11/01 09:24:39;;;;;;;32.75;13.32;;;14.40;79.90;;;;;;4222201;28;20664;-88
2022/11/01 09:26:41;;;;;;;35.30;13.75;;;14.50;79.90;;;;;;4225606;28;20046;-87
2022/11/01 09:28:42;;;;;;;26.63;13.00;;;14.50;80.70;;;;;;4230242;28;20024;-87
2022/11/01 09:30:42;;;;;;;29.83;12.80;;;14.70;80.00;;;;;;4229174;28;20434;-87
2022/11/01 09:32:43;;;;;;;29.40;12.35;;;14.60;79.90;;;;;;4229200;27;20065;-87
2022/11/01 09:34:50;;;;;;;27.95;11.55;;;14.60;80.00;;;;;;4211991;28;20020;-87
2022/11/01 09:36:51;;;;;;;23.48;11.82;;;14.70;79.90;;;;;;4227848;28;20072;-87
2022/11/01 09:39:15;;;;;;;21.30;11.18;;;14.70;79.90;;;;;;4227850;28;20060;-87
2022/11/01 09:41:49;;;;;;;24.08;10.82;;;14.80;79.90;;;;;;4225765;27;20088;-86
2022/11/01 09:44:15;;;;;;;28.02;10.70;;;14.80;79.50;;;;;;4229238;27;20024;-88
2022/11/01 09:46:20;;;;;;;21.73;10.40;;;15.00;79.50;;;;;;4236205;27;20032;-87
2022/11/01 09:48:41;;;;;;;26.83;10.20;;;14.90;79.10;;;;;;4228819;27;20070;-87
2022/11/01 09:51:06;;;;;;;24.63;9.38;;;15.10;79.10;;;;;;4227454;27;20035;-88
2022/11/01 09:53:28;;;;;;;18.67;8.55;;;15.00;78.90;;;;;;4232157;27;20035;-87
2022/11/01 09:56:09;;;;;;;23.70;9.10;;;15.10;78.70;;;;;;4224254;27;20039;-88
2022/11/01 09:58:47;;;;;;;22.85;7.90;;;15.10;78.20;;;;;;4230190;27;20039;-87
2022/11/01 10:01:27;;;;;;;21.35;8.82;;;15.10;77.80;;;;;;4222359;27;20040;-87
2022/11/01 10:04:07;;;;;;;22.50;8.25;;;15.20;77.60;;;;;;4236008;27;20031;-87
2022/11/01 10:06:37;;;;;;;21.27;8.63;;;15.30;76.90;;;;;;4224869;28;20036;-87
2022/11/01 10:09:49;;;;;;;21.17;7.60;;;15.20;76.90;;;;;;4227426;27;20819;-87
2022/11/01 10:12:23;;;;;;;19.17;7.75;;;15.20;76.10;;;;;;4241369;27;20028;-88
2022/11/01 10:15:10;;;;;;;14.80;6.80;;;15.30;76.10;;;;;;4228905;27;20024;-88
2022/11/01 10:17:47;;;;;;;23.30;7.03;;;15.30;76.00;;;;;;4233033;27;20269;-88
2022/11/01 10:20:12;;;;;;;17.98;5.93;;;15.30;75.50;;;;;;4236190;27;20027;-87
2022/11/01 10:22:35;;;;;;;14.60;5.32;;;15.40;74.80;;;;;;4230907;27;20398;-87
2022/11/01 10:25:26;;;;;;;15.75;4.32;;;15.40;74.40;;;;;;4228483;27;20476;-87
2022/11/01 10:28:25;;;;;;;13.05;4.13;;;15.40;73.70;;;;;;4223294;27;20036;-87
2022/11/01 10:30:55;;;;;;;16.10;4.53;;;15.40;72.60;;;;;;4189975;28;20039;-87
2022/11/01 10:33:37;;;;;;;14.52;3.92;;;15.50;72.60;;;;;;4181026;28;20025;-87
2022/11/01 10:36:11;;;;;;;14.32;3.83;;;15.40;72.50;;;;;;4196047;28;20024;-87
2022/11/01 10:38:35;;;;;;;;;;;15.40;71.80;;;;;;4193838;28;20047;-87
2022/11/01 10:41:10;;;;;;;12.10;2.72;;;15.40;71.30;;;;;;4187467;28;19904;-87
2022/11/01 10:43:36;;;;;;;8.32;2.13;;;15.50;70.60;;;;;;4195697;28;20115;-88
2022/11/01 10:45:58;;;;;;;17.90;2.70;;;15.50;70.10;;;;;;4194447;28;20025;-87
2022/11/01 10:48:32;;;;;;;10.82;2.10;;;15.50;68.50;;;;;;4192747;28;20107;-87
2022/11/01 10:50:57;;;;;;;7.63;1.70;;;15.60;67.70;;;;;;4178892;28;20112;-87
2022/11/01 10:53:20;;;;;;;10.70;2.00;;;15.60;68.00;;;;;;4172273;28;20121;-88
2022/11/01 10:55:56;;;;;;;13.13;1.90;;;15.70;67.20;;;;;;4191392;28;20390;-86
2022/11/01 10:58:29;;;;;;;7.25;1.40;;;15.70;64.20;;;;;;4188028;28;20028;-87
2022/11/01 11:00:51;;;;;;;11.88;1.90;;;15.70;64.50;;;;;;4201279;28;20051;-87
2022/11/01 11:03:21;;;;;;;7.95;1.70;;;15.80;65.00;;;;;;4231789;27;20100;-86
2022/11/01 11:05:42;;;;;;;7.03;1.27;;;15.90;63.40;;;;;;4231290;27;20091;-88
2022/11/01 11:08:12;;;;;;;8.60;1.77;;;15.80;63.20;;;;;;4224918;27;20067;-88
2022/11/01 11:10:34;;;;;;;7.03;1.48;;;15.80;62.60;;;;;;4228872;28;20387;-87
2022/11/01 11:12:59;;;;;;;9.93;1.67;;;15.90;63.10;;;;;;4227061;27;20038;-86
2022/11/01 11:15:27;;;;;;;9.70;1.90;;;15.90;62.90;;;;;;4230248;27;20114;-87
2022/11/01 11:17:51;;;;;;;7.97;1.73;;;16.00;62.80;;;;;;4227931;28;20572;-87
2022/11/01 11:20:10;;;;;;;8.85;1.70;;;16.00;62.10;;;;;;4229555;27;20080;-87
2022/11/01 11:22:34;;;;;;;11.88;1.58;;;15.90;61.90;;;;;;4229557;27;20038;-87
2022/11/01 11:24:57;;;;;;;10.68;1.85;;;16.00;61.60;;;;;;4228795;27;20451;-87
2022/11/01 11:27:28;;;;;;;8.23;1.88;;;16.00;61.50;;;;;;4230209;27;20035;-87
2022/11/01 11:29:54;;;;;;;11.77;1.70;;;16.00;61.40;;;;;;4228458;27;20112;-86
2022/11/01 11:32:20;;;;;;;7.70;1.63;;;16.00;61.90;;;;;;4228513;27;20042;-87
2022/11/01 11:34:40;;;;;;;7.93;1.58;;;16.00;61.70;;;;;;4225378;28;20077;-86
2022/11/01 11:37:02;;;;;;;12.32;1.58;;;16.00;62.20;;;;;;4228599;27;20132;-87
2022/11/01 11:39:27;;;;;;;15.60;1.77;;;15.90;61.80;;;;;;4227616;27;20037;-88